Time;durP1;ratioP1;P1;durP2;ratioP2;P2;SDS_P1;SDS_P2;PMS_P1;PMS_P2;Temp;Humidity;BMP_temperature;BMP_pressure;BME280_temperature;BME280_humidity;BME280_pressure;Samples;Min_cycle;Max_cycle;Signal;HPM_P1;HPM_P2
2021/12/18 00:00:23;;;;;;;10.73;2.55;;;8.30;99.90;;;;;;5072635;28;20048;-43
2021/12/18 00:02:48;;;;;;;26.95;3.28;;;8.30;99.90;;;;;;5073762;28;20025;-43
2021/12/18 00:05:14;;;;;;;10.38;3.03;;;8.30;99.90;;;;;;5072752;28;20031;-44
2021/12/18 00:07:39;;;;;;;6.93;2.88;;;8.30;99.90;;;;;;5072816;28;20016;-43
2021/12/18 00:10:06;;;;;;;19.63;3.20;;;8.30;99.90;;;;;;5072293;28;20020;-44
2021/12/18 00:12:31;;;;;;;11.20;2.47;;;8.30;99.90;;;;;;5076504;28;20099;-43
2021/12/18 00:14:57;;;;;;;10.68;2.55;;;8.30;99.90;;;;;;5076771;28;20107;-45
2021/12/18 00:17:22;;;;;;;14.20;2.88;;;8.20;99.90;;;;;;5076388;28;20028;-44
2021/12/18 00:19:48;;;;;;;7.28;2.60;;;8.20;99.90;;;;;;5076998;28;20021;-43
2021/12/18 00:22:13;;;;;;;3.30;1.92;;;8.20;99.90;;;;;;5076807;28;20372;-44
2021/12/18 00:24:39;;;;;;;9.82;2.42;;;8.20;99.90;;;;;;5076415;28;20031;-43
2021/12/18 00:27:05;;;;;;;4.53;2.00;;;8.20;99.90;;;;;;5076744;28;20460;-44
2021/12/18 00:29:30;;;;;;;10.73;2.25;;;8.10;99.90;;;;;;5076669;28;20465;-43
2021/12/18 00:31:57;;;;;;;9.15;1.85;;;8.10;99.90;;;;;;5076227;28;20035;-44
2021/12/18 00:34:23;;;;;;;11.55;2.03;;;8.10;99.90;;;;;;5096767;28;20531;-45
2021/12/18 00:36:49;;;;;;;8.50;1.85;;;8.10;99.90;;;;;;5096870;28;20095;-43
2021/12/18 00:39:15;;;;;;;5.55;1.83;;;8.10;99.90;;;;;;5096254;28;20016;-44
2021/12/18 00:42:21;;;;;;;4.05;1.42;;;8.10;99.90;;;;;;5096759;28;20094;-43
2021/12/18 00:44:32;;;;;;;14.15;2.83;;;8.10;99.90;;;;;;5093174;28;20071;-44
2021/12/18 00:46:58;;;;;;;2.67;1.10;;;8.00;99.90;;;;;;5096496;28;20432;-43
2021/12/18 00:49:24;;;;;;;3.03;0.90;;;8.00;99.90;;;;;;5096626;28;20100;-45
2021/12/18 00:51:50;;;;;;;13.65;1.40;;;7.90;99.90;;;;;;5096057;28;20028;-43
2021/12/18 00:54:15;;;;;;;3.40;1.00;;;7.90;99.90;;;;;;5096429;28;20069;-44
2021/12/18 00:56:41;;;;;;;3.08;0.98;;;7.90;99.90;;;;;;5096497;28;20012;-44
2021/12/18 00:59:06;;;;;;;5.60;1.40;;;7.90;99.90;;;;;;5095574;28;20035;-43
2021/12/18 01:01:32;;;;;;;2.40;0.80;;;7.90;99.90;;;;;;5096474;28;20028;-44
2021/12/18 01:03:58;;;;;;;3.15;0.90;;;8.00;99.90;;;;;;5076941;28;20036;-44
2021/12/18 01:06:24;;;;;;;3.40;1.20;;;7.90;99.90;;;;;;5075608;28;20070;-43
2021/12/18 01:08:53;;;;;;;2.47;1.20;;;7.90;99.90;;;;;;5075933;28;20491;-43
2021/12/18 01:11:31;;;;;;;12.23;1.60;;;7.90;99.90;;;;;;5075764;28;20464;-44
2021/12/18 01:14:53;;;;;;;2.92;1.30;;;7.90;99.90;;;;;;5075355;28;20159;-42
2021/12/18 01:24:48;;;;;;;10.23;1.20;;;7.90;99.90;;;;;;5044398;28;20031;-44
2021/12/18 01:27:14;;;;;;;5.32;1.65;;;7.90;99.90;;;;;;5075145;28;20025;-43
2021/12/18 01:29:40;;;;;;;5.30;1.20;;;7.90;99.90;;;;;;5075719;28;20012;-43
2021/12/18 01:32:06;;;;;;;2.75;1.20;;;7.90;99.90;;;;;;5078445;28;20505;-44
2021/12/18 01:34:32;;;;;;;3.85;0.95;;;7.90;99.90;;;;;;5095284;28;20466;-44
2021/12/18 01:36:57;;;;;;;3.35;0.90;;;7.90;99.90;;;;;;5076971;28;20028;-43
2021/12/18 01:39:23;;;;;;;2.30;0.75;;;7.90;99.90;;;;;;5075441;28;20078;-43
2021/12/18 01:52:45;;;;;;;9.68;1.25;;;7.90;99.90;;;;;;5075467;28;20039;-43
2021/12/18 01:55:11;;;;;;;2.97;0.93;;;7.90;99.90;;;;;;5074530;28;20032;-44
2021/12/18 01:57:38;;;;;;;3.90;1.00;;;7.90;99.90;;;;;;5075034;28;20063;-44
2021/12/18 02:00:29;;;;;;;4.55;1.10;;;7.80;99.90;;;;;;5074661;28;20523;-43
2021/12/18 02:02:54;;;;;;;2.95;0.77;;;7.80;99.90;;;;;;5086305;28;20032;-43
2021/12/18 02:05:20;;;;;;;4.03;0.93;;;7.80;99.90;;;;;;5080455;28;20031;-44
2021/12/18 02:07:46;;;;;;;2.00;0.75;;;7.80;99.90;;;;;;5074840;28;20025;-43
2021/12/18 02:10:24;;;;;;;2.75;0.90;;;7.80;99.90;;;;;;5075241;28;20020;-44
2021/12/18 02:12:59;;;;;;;1.40;0.50;;;7.80;99.90;;;;;;5074791;28;20035;-44
2021/12/18 02:20:57;;;;;;;0.65;0.57;;;7.70;99.90;;;;;;5074858;28;20035;-43
2021/12/18 02:23:23;;;;;;;2.55;0.70;;;7.70;99.90;;;;;;5091693;28;20028;-43
2021/12/18 02:25:49;;;;;;;6.43;0.82;;;7.70;99.90;;;;;;5094879;28;20016;-44
2021/12/18 02:28:21;;;;;;;1.58;0.82;;;7.70;99.90;;;;;;5094738;28;20012;-43
2021/12/18 02:30:49;;;;;;;1.00;0.70;;;7.70;99.90;;;;;;5094204;28;20406;-43
2021/12/18 02:33:15;;;;;;;1.55;0.80;;;7.70;99.90;;;;;;5094494;28;20024;-44
2021/12/18 02:35:48;;;;;;;1.25;0.80;;;7.80;99.90;;;;;;5094433;28;20059;-44
2021/12/18 02:38:23;;;;;;;4.03;0.80;;;7.80;99.90;;;;;;5094007;28;20459;-45
2021/12/18 02:43:17;;;;;;;0.93;0.70;;;7.80;99.90;;;;;;5074125;28;20060;-44
2021/12/18 02:45:42;;;;;;;2.72;0.98;;;7.80;99.90;;;;;;5090404;28;20051;-45
2021/12/18 02:48:08;;;;;;;2.10;0.90;;;7.80;99.90;;;;;;5094295;28;20040;-43
2021/12/18 02:50:39;;;;;;;6.90;0.90;;;7.80;99.90;;;;;;5094372;28;20065;-43
2021/12/18 02:53:05;;;;;;;3.17;1.05;;;7.80;99.90;;;;;;5093651;28;20020;-44
2021/12/18 02:55:31;;;;;;;3.22;0.82;;;7.80;99.90;;;;;;5094187;28;20038;-44
2021/12/18 02:57:56;;;;;;;5.40;1.02;;;7.80;99.90;;;;;;5094104;28;20020;-45
2021/12/18 03:00:24;;;;;;;1.40;0.65;;;7.90;99.90;;;;;;5093296;28;20128;-43
2021/12/18 03:02:50;;;;;;;1.55;0.63;;;7.80;99.90;;;;;;5094164;28;20111;-44
2021/12/18 03:05:22;;;;;;;2.45;0.70;;;7.80;99.90;;;;;;5093484;28;20095;-43
2021/12/18 03:07:54;;;;;;;1.08;0.60;;;7.80;99.90;;;;;;5093911;28;20035;-46
2021/12/18 03:24:22;;;;;;;0.70;0.47;;;7.60;99.90;;;;;;5073578;28;20119;-44
2021/12/18 03:26:48;;;;;;;0.68;0.50;;;7.60;99.90;;;;;;5072982;28;20032;-44
2021/12/18 03:29:14;;;;;;;0.80;0.40;;;7.60;99.90;;;;;;5073608;28;20036;-45
2021/12/18 03:31:39;;;;;;;1.70;0.80;;;7.50;99.90;;;;;;5073375;28;20036;-43
2021/12/18 03:34:05;;;;;;;1.13;0.65;;;7.50;99.90;;;;;;5072651;28;20027;-43
2021/12/18 03:36:30;;;;;;;2.70;0.90;;;7.50;99.90;;;;;;5073379;28;20023;-43
2021/12/18 03:38:56;;;;;;;2.25;0.82;;;7.50;99.90;;;;;;5073477;28;20035;-44
2021/12/18 03:41:21;;;;;;;2.13;0.88;;;7.50;99.90;;;;;;5087292;28;20044;-44
2021/12/18 03:43:47;;;;;;;1.70;0.60;;;7.50;99.90;;;;;;5093281;28;20042;-43
2021/12/18 03:46:12;;;;;;;3.35;0.45;;;7.50;99.90;;;;;;5092370;28;20463;-44
2021/12/18 03:48:38;;;;;;;2.10;0.63;;;7.50;99.90;;;;;;5092769;28;20020;-43
2021/12/18 03:51:04;;;;;;;1.92;0.70;;;7.50;99.90;;;;;;5093214;28;20093;-43
2021/12/18 03:53:29;;;;;;;1.38;0.57;;;7.40;99.90;;;;;;5093206;28;20142;-43
2021/12/18 03:55:55;;;;;;;0.98;0.40;;;7.50;99.90;;;;;;5092675;28;20063;-44
2021/12/18 03:58:20;;;;;;;0.88;0.50;;;7.40;99.90;;;;;;5093222;28;20386;-44
2021/12/18 04:00:46;;;;;;;1.80;0.60;;;7.40;99.90;;;;;;5092945;28;20520;-43
2021/12/18 04:03:12;;;;;;;2.28;0.60;;;7.40;99.90;;;;;;5092691;28;20028;-43
2021/12/18 04:05:38;;;;;;;1.80;0.52;;;7.40;99.90;;;;;;5093135;28;20112;-43
2021/12/18 04:08:09;;;;;;;2.33;0.88;;;7.40;99.90;;;;;;5093037;28;20020;-43
2021/12/18 04:10:37;;;;;;;2.80;0.75;;;7.40;99.90;;;;;;5085298;28;20132;-44
2021/12/18 04:13:03;;;;;;;2.00;0.75;;;7.40;99.90;;;;;;5072760;28;20060;-44
2021/12/18 04:15:29;;;;;;;1.58;0.93;;;7.40;99.90;;;;;;5072940;28;20029;-44
2021/12/18 04:17:55;;;;;;;3.35;0.70;;;7.40;99.90;;;;;;5072142;28;20024;-43
2021/12/18 04:20:21;;;;;;;2.85;0.80;;;7.40;99.90;;;;;;5072656;28;20033;-43
2021/12/18 04:22:46;;;;;;;1.20;0.50;;;7.40;99.90;;;;;;5072160;28;20021;-44
2021/12/18 04:25:12;;;;;;;1.48;0.52;;;7.40;99.90;;;;;;5072709;28;20099;-43
2021/12/18 04:27:37;;;;;;;3.28;0.90;;;7.40;99.90;;;;;;5072493;28;20038;-43
2021/12/18 04:30:03;;;;;;;0.95;0.50;;;7.40;99.90;;;;;;5072095;28;20107;-43
2021/12/18 04:32:29;;;;;;;2.22;0.68;;;7.40;99.90;;;;;;5072734;28;20058;-44
2021/12/18 04:34:54;;;;;;;1.63;0.70;;;7.40;99.90;;;;;;5072482;28;20472;-43
2021/12/18 04:37:20;;;;;;;1.85;0.70;;;7.40;99.90;;;;;;5072014;28;20112;-43
2021/12/18 04:39:46;;;;;;;1.48;0.70;;;7.40;99.90;;;;;;5076144;28;20110;-43
2021/12/18 04:42:12;;;;;;;0.80;0.47;;;7.40;99.90;;;;;;5092662;28;20054;-44
2021/12/18 04:44:37;;;;;;;1.98;0.60;;;7.40;99.90;;;;;;5092313;28;20032;-44
2021/12/18 04:47:03;;;;;;;4.03;0.80;;;7.40;99.90;;;;;;5092576;28;20081;-43
2021/12/18 04:49:28;;;;;;;2.30;0.70;;;7.30;99.90;;;;;;5092742;28;20043;-43
2021/12/18 04:51:54;;;;;;;3.08;0.70;;;7.30;99.90;;;;;;5092054;28;20024;-44
2021/12/18 04:54:20;;;;;;;2.83;0.82;;;7.30;99.90;;;;;;5092566;28;20138;-45
2021/12/18 04:56:46;;;;;;;3.50;0.63;;;7.40;99.90;;;;;;5093460;28;20459;-43
2021/12/18 04:59:12;;;;;;;2.30;0.68;;;7.40;99.90;;;;;;5095557;28;20451;-44
2021/12/18 05:01:39;;;;;;;1.08;0.50;;;7.40;99.90;;;;;;5096611;28;20035;-44
2021/12/18 05:04:09;;;;;;;2.13;0.73;;;7.40;99.90;;;;;;5096245;28;20475;-43
2021/12/18 05:06:37;;;;;;;2.17;1.05;;;7.40;99.90;;;;;;5095711;28;20421;-43
2021/12/18 05:09:03;;;;;;;2.13;1.00;;;7.30;99.90;;;;;;5096249;28;20028;-42
2021/12/18 05:11:29;;;;;;;1.48;0.38;;;7.30;99.90;;;;;;5094411;28;20028;-43
2021/12/18 05:13:54;;;;;;;2.63;0.95;;;7.40;99.90;;;;;;5095757;28;20026;-43
2021/12/18 05:16:21;;;;;;;7.10;0.90;;;7.40;99.90;;;;;;5096068;28;20074;-44
2021/12/18 05:18:46;;;;;;;1.42;0.52;;;7.30;99.90;;;;;;5096278;28;20024;-43
2021/12/18 05:21:12;;;;;;;3.25;1.23;;;7.30;99.90;;;;;;5095307;28;20386;-44
2021/12/18 05:23:37;;;;;;;3.92;1.13;;;7.30;99.90;;;;;;5096102;28;20101;-44
2021/12/18 05:26:03;;;;;;;4.28;0.90;;;7.40;99.90;;;;;;5095399;28;20016;-43
2021/12/18 05:28:29;;;;;;;1.70;0.70;;;7.30;99.90;;;;;;5095914;28;20022;-43
2021/12/18 05:30:54;;;;;;;1.42;0.73;;;7.30;99.90;;;;;;5095947;28;20091;-43
2021/12/18 05:33:20;;;;;;;5.90;0.73;;;7.30;99.90;;;;;;5095335;28;20020;-43
2021/12/18 05:35:45;;;;;;;6.28;0.98;;;7.30;99.90;;;;;;5095589;28;20028;-43
2021/12/18 05:38:11;;;;;;;1.60;0.85;;;7.40;99.90;;;;;;5095703;28;20028;-42
2021/12/18 05:40:38;;;;;;;3.40;0.70;;;7.40;99.90;;;;;;5081767;28;20040;-43
2021/12/18 05:43:04;;;;;;;1.13;0.52;;;7.30;99.90;;;;;;5075233;28;20112;-43
2021/12/18 05:45:30;;;;;;;3.35;0.65;;;7.30;99.90;;;;;;5075387;28;20569;-43
2021/12/18 05:47:56;;;;;;;1.65;0.73;;;7.30;99.90;;;;;;5074858;28;20021;-44
2021/12/18 05:50:24;;;;;;;1.25;0.43;;;7.40;99.90;;;;;;5075211;28;20017;-44
2021/12/18 05:52:50;;;;;;;1.73;0.77;;;7.40;99.90;;;;;;5075194;28;20021;-46
2021/12/18 05:55:16;;;;;;;1.38;0.90;;;7.30;99.90;;;;;;5073849;28;20025;-43
2021/12/18 05:57:42;;;;;;;3.38;0.88;;;7.30;99.90;;;;;;5074491;28;20155;-44
2021/12/18 06:00:10;;;;;;;0.98;0.40;;;7.40;99.90;;;;;;5074082;28;20044;-44
2021/12/18 06:02:36;;;;;;;2.28;0.90;;;7.30;99.90;;;;;;5073852;28;20489;-44
2021/12/18 06:05:04;;;;;;;1.98;0.43;;;7.40;99.90;;;;;;5074181;28;20078;-43
2021/12/18 06:07:32;;;;;;;1.35;0.70;;;7.30;99.90;;;;;;5074174;28;20107;-43
2021/12/18 06:10:00;;;;;;;1.15;0.47;;;7.40;99.90;;;;;;5080361;28;20032;-43
2021/12/18 06:12:26;;;;;;;1.90;0.63;;;7.40;99.90;;;;;;5094150;28;20023;-43
2021/12/18 06:14:52;;;;;;;1.75;0.95;;;7.40;99.90;;;;;;5094396;28;20103;-43
2021/12/18 06:17:18;;;;;;;3.90;1.15;;;7.40;99.90;;;;;;5093692;28;20043;-43
2021/12/18 06:19:43;;;;;;;3.60;0.90;;;7.40;99.90;;;;;;5094145;28;20643;-46
2021/12/18 06:22:09;;;;;;;2.33;0.60;;;7.40;99.90;;;;;;5093714;28;20031;-43
2021/12/18 06:24:35;;;;;;;3.90;0.93;;;7.40;99.90;;;;;;5094095;28;20012;-43
2021/12/18 06:27:00;;;;;;;2.42;0.80;;;7.50;99.90;;;;;;5093993;28;20030;-44
2021/12/18 06:29:26;;;;;;;1.40;0.85;;;7.50;99.90;;;;;;5093502;28;20031;-44
2021/12/18 06:31:51;;;;;;;2.33;0.80;;;7.50;99.90;;;;;;5093969;28;20024;-43
2021/12/18 06:34:17;;;;;;;2.45;0.95;;;7.50;99.90;;;;;;5093686;28;20016;-43
2021/12/18 06:36:43;;;;;;;1.88;0.43;;;7.50;99.90;;;;;;5093499;28;20020;-44
2021/12/18 06:39:09;;;;;;;1.60;0.75;;;7.50;99.90;;;;;;5093025;28;20073;-43
2021/12/18 06:41:35;;;;;;;3.30;1.05;;;7.50;99.90;;;;;;5073607;28;20016;-43
2021/12/18 06:44:01;;;;;;;1.52;0.90;;;7.50;99.90;;;;;;5073919;28;20337;-43
2021/12/18 06:46:27;;;;;;;2.47;0.93;;;7.50;99.90;;;;;;5073368;28;20032;-43
2021/12/18 06:48:52;;;;;;;1.15;0.70;;;7.50;99.90;;;;;;5073475;28;20036;-43
2021/12/18 06:51:19;;;;;;;3.22;0.93;;;7.50;99.90;;;;;;5072752;28;20468;-42
2021/12/18 06:53:45;;;;;;;1.48;0.80;;;7.50;99.90;;;;;;5055399;28;20367;-44
2021/12/18 06:56:11;;;;;;;2.90;1.00;;;7.60;99.90;;;;;;5073157;28;20032;-42
2021/12/18 06:58:36;;;;;;;1.85;0.60;;;7.50;99.90;;;;;;5072743;28;20025;-45
2021/12/18 07:01:02;;;;;;;2.75;0.82;;;7.60;99.90;;;;;;5089939;28;20568;-42
2021/12/18 07:03:27;;;;;;;3.38;1.08;;;7.60;99.90;;;;;;5092975;28;20055;-43
2021/12/18 07:05:53;;;;;;;2.38;0.98;;;7.60;99.90;;;;;;5092883;28;20024;-43
2021/12/18 07:08:19;;;;;;;1.25;0.70;;;7.60;99.90;;;;;;5093339;28;20016;-43
2021/12/18 07:10:44;;;;;;;3.22;0.93;;;7.50;99.90;;;;;;5093272;28;20052;-43
2021/12/18 07:13:11;;;;;;;1.33;0.70;;;7.60;99.90;;;;;;5092217;28;20032;-43
2021/12/18 07:15:37;;;;;;;1.95;0.52;;;7.60;99.90;;;;;;5092868;28;20028;-44
2021/12/18 07:18:02;;;;;;;1.92;1.00;;;7.60;99.90;;;;;;5092986;28;20104;-44
2021/12/18 07:20:28;;;;;;;3.60;0.95;;;7.60;99.90;;;;;;5075988;28;20100;-44
2021/12/18 07:22:54;;;;;;;1.13;0.50;;;7.60;99.90;;;;;;5076400;28;20050;-42
2021/12/18 07:25:20;;;;;;;3.03;1.40;;;7.60;99.90;;;;;;5092601;28;20036;-43
2021/12/18 07:27:46;;;;;;;3.72;1.05;;;7.60;99.90;;;;;;5092420;28;20019;-43
2021/12/18 07:30:13;;;;;;;4.93;1.23;;;7.60;99.90;;;;;;5092188;28;20020;-44
2021/12/18 07:32:38;;;;;;;2.40;1.27;;;7.60;99.90;;;;;;5091745;28;20024;-43
2021/12/18 07:35:06;;;;;;;3.95;1.00;;;7.70;99.90;;;;;;5091969;28;20057;-43
2021/12/18 07:37:31;;;;;;;3.00;0.88;;;7.70;99.90;;;;;;5091921;28;20424;-44
2021/12/18 07:39:57;;;;;;;1.80;0.98;;;7.70;99.90;;;;;;5091517;28;20055;-42
2021/12/18 07:42:23;;;;;;;4.80;1.58;;;7.70;99.90;;;;;;5088610;28;20026;-43
2021/12/18 07:44:49;;;;;;;3.10;0.95;;;7.70;99.90;;;;;;5083074;28;20107;-44
2021/12/18 07:47:15;;;;;;;4.35;0.95;;;7.70;99.90;;;;;;5071764;28;20100;-43
2021/12/18 07:49:40;;;;;;;8.82;1.27;;;7.70;99.90;;;;;;5086486;28;20024;-43
2021/12/18 07:52:06;;;;;;;4.85;1.27;;;7.70;99.90;;;;;;5087730;28;20502;-44
2021/12/18 07:54:32;;;;;;;6.40;1.13;;;7.80;99.90;;;;;;5089694;28;20122;-43
2021/12/18 07:56:57;;;;;;;3.20;1.60;;;7.80;99.90;;;;;;5072350;28;20070;-44
2021/12/18 07:59:23;;;;;;;5.20;1.45;;;7.80;99.90;;;;;;5071803;28;20084;-43
2021/12/18 08:01:48;;;;;;;4.93;1.75;;;7.80;99.90;;;;;;5072224;28;20063;-42
2021/12/18 08:04:14;;;;;;;5.63;1.80;;;7.80;99.90;;;;;;5092241;28;20103;-43
2021/12/18 08:06:39;;;;;;;11.32;2.05;;;7.90;99.90;;;;;;5092310;28;20043;-44
2021/12/18 08:09:05;;;;;;;4.57;1.95;;;7.90;99.90;;;;;;5091990;28;20016;-42
2021/12/18 08:11:31;;;;;;;5.47;1.65;;;7.90;99.90;;;;;;5087393;28;20031;-42
2021/12/18 08:13:57;;;;;;;7.85;1.80;;;7.90;99.90;;;;;;5087712;28;20032;-45
2021/12/18 08:16:22;;;;;;;5.38;1.90;;;8.00;99.90;;;;;;5090217;28;20031;-43
2021/12/18 08:18:48;;;;;;;10.00;1.77;;;8.00;99.90;;;;;;5091236;28;20024;-43
2021/12/18 08:21:14;;;;;;;3.20;1.30;;;8.00;99.90;;;;;;5090737;28;20101;-43
2021/12/18 08:23:40;;;;;;;3.67;1.77;;;8.00;99.90;;;;;;5090690;28;20074;-43
2021/12/18 08:26:06;;;;;;;7.40;2.17;;;8.10;99.90;;;;;;5087318;28;20440;-44
2021/12/18 08:28:32;;;;;;;7.45;1.90;;;8.10;99.90;;;;;;5089567;28;20039;-42
2021/12/18 08:30:57;;;;;;;4.82;2.13;;;8.10;99.90;;;;;;5090492;28;20758;-44
2021/12/18 08:33:23;;;;;;;7.03;1.98;;;8.20;99.90;;;;;;5094095;28;20043;-42
2021/12/18 08:35:49;;;;;;;5.32;2.33;;;8.20;99.90;;;;;;5094522;28;20042;-44
2021/12/18 08:38:14;;;;;;;4.78;1.80;;;8.20;99.90;;;;;;5094637;28;20012;-43
2021/12/18 08:40:42;;;;;;;11.93;2.80;;;8.30;99.90;;;;;;5095025;28;20036;-44
2021/12/18 08:43:08;;;;;;;6.25;2.03;;;8.30;99.90;;;;;;5089929;28;20030;-43
2021/12/18 08:45:34;;;;;;;4.57;1.98;;;8.30;99.90;;;;;;5094888;28;20515;-43
2021/12/18 08:47:59;;;;;;;4.97;1.60;;;8.30;99.90;;;;;;5094925;28;20012;-43
2021/12/18 08:50:25;;;;;;;5.07;1.80;;;8.30;99.90;;;;;;5093760;28;20023;-43
2021/12/18 08:52:51;;;;;;;4.78;2.10;;;8.30;99.90;;;;;;5094781;28;20016;-43
2021/12/18 08:55:19;;;;;;;9.63;2.58;;;8.40;99.90;;;;;;5094250;28;20102;-43
2021/12/18 08:57:45;;;;;;;7.93;3.00;;;8.40;99.90;;;;;;5094108;28;20012;-43
2021/12/18 09:00:13;;;;;;;7.68;2.50;;;8.40;99.90;;;;;;5094109;28;20428;-44
2021/12/18 09:02:42;;;;;;;7.07;2.03;;;8.50;99.90;;;;;;5094558;28;20018;-43
2021/12/18 09:05:09;;;;;;;6.68;1.80;;;8.50;99.90;;;;;;5091482;28;20028;-42
2021/12/18 09:07:35;;;;;;;4.85;1.67;;;8.50;99.90;;;;;;5094377;28;20099;-44
2021/12/18 09:10:01;;;;;;;8.90;2.10;;;8.60;99.90;;;;;;5094160;28;20024;-42
2021/12/18 09:12:27;;;;;;;7.30;2.10;;;8.60;99.90;;;;;;5093108;28;20019;-43
2021/12/18 09:14:52;;;;;;;2.47;1.90;;;8.60;99.90;;;;;;5094160;28;20024;-43
2021/12/18 09:17:18;;;;;;;7.72;2.05;;;8.70;99.90;;;;;;5093881;28;20047;-44
2021/12/18 09:19:44;;;;;;;6.82;1.75;;;8.70;99.90;;;;;;5093605;28;20482;-42
2021/12/18 09:22:09;;;;;;;3.15;1.38;;;8.70;99.90;;;;;;5093830;28;20012;-44
2021/12/18 09:24:36;;;;;;;3.30;1.70;;;8.70;99.90;;;;;;5094099;28;20016;-44
2021/12/18 09:27:02;;;;;;;8.00;1.67;;;8.80;99.90;;;;;;5093429;28;20035;-45
2021/12/18 09:29:28;;;;;;;7.07;1.52;;;8.80;99.90;;;;;;5093583;28;20165;-42
2021/12/18 09:31:53;;;;;;;11.90;1.55;;;8.80;99.90;;;;;;5092532;28;20099;-43
2021/12/18 09:34:19;;;;;;;10.70;1.83;;;8.90;99.90;;;;;;5092915;28;20019;-43
2021/12/18 09:36:44;;;;;;;3.08;1.48;;;8.90;99.90;;;;;;5093770;28;20097;-43
2021/12/18 09:39:10;;;;;;;5.93;1.63;;;8.90;99.90;;;;;;5093125;28;20055;-43
2021/12/18 09:41:36;;;;;;;4.60;1.30;;;8.90;99.90;;;;;;5093584;28;20012;-44
2021/12/18 09:44:02;;;;;;;6.70;1.70;;;8.90;99.90;;;;;;5093862;28;20082;-44
2021/12/18 09:46:30;;;;;;;8.88;1.73;;;9.00;99.90;;;;;;5094162;28;20615;-44
2021/12/18 09:48:56;;;;;;;3.42;1.23;;;8.90;99.90;;;;;;5094102;28;20154;-43
2021/12/18 09:51:27;;;;;;;5.32;1.23;;;9.00;99.90;;;;;;5094404;28;20032;-42
2021/12/18 09:53:55;;;;;;;6.60;1.67;;;9.00;99.90;;;;;;5074112;28;20032;-43
2021/12/18 09:56:22;;;;;;;3.88;1.25;;;9.00;99.90;;;;;;5074163;28;20033;-42
2021/12/18 09:58:48;;;;;;;3.75;1.27;;;9.10;99.90;;;;;;5074596;28;20020;-43
2021/12/18 10:01:15;;;;;;;2.70;0.82;;;9.10;99.90;;;;;;5073469;28;20475;-42
2021/12/18 10:03:52;;;;;;;3.58;1.05;;;9.10;99.90;;;;;;5074340;28;20029;-44
2021/12/18 10:06:44;;;;;;;1.73;1.00;;;9.10;99.90;;;;;;5074107;28;20033;-43
2021/12/18 10:09:28;;;;;;;2.17;0.95;;;9.10;99.90;;;;;;5067708;28;20047;-44
2021/12/18 10:12:00;;;;;;;4.47;1.05;;;9.10;99.90;;;;;;5074340;28;20058;-43
2021/12/18 10:14:35;;;;;;;3.15;0.90;;;9.10;99.90;;;;;;5073255;28;20021;-43
2021/12/18 10:17:01;;;;;;;1.27;1.02;;;9.10;99.90;;;;;;5074107;28;20016;-43
2021/12/18 10:19:30;;;;;;;5.65;1.77;;;9.20;99.90;;;;;;5073670;28;20513;-45
2021/12/18 10:22:00;;;;;;;2.70;1.00;;;9.20;99.90;;;;;;5073716;28;20103;-43
2021/12/18 10:24:28;;;;;;;2.75;1.33;;;9.20;99.90;;;;;;5073767;28;20020;-42
2021/12/18 10:26:54;;;;;;;8.18;1.30;;;9.20;99.90;;;;;;5073675;28;20025;-44
2021/12/18 10:29:34;;;;;;;4.40;1.55;;;9.20;99.90;;;;;;5073022;28;20067;-44
2021/12/18 10:32:09;;;;;;;1.98;0.73;;;9.30;99.90;;;;;;5073976;28;20031;-43
2021/12/18 10:34:36;;;;;;;4.32;1.27;;;9.30;99.90;;;;;;5073751;28;20119;-42
2021/12/18 10:37:21;;;;;;;1.65;1.33;;;9.30;99.90;;;;;;5055351;28;20349;-44
2021/12/18 10:39:58;;;;;;;6.05;1.08;;;9.30;99.90;;;;;;5073679;28;20021;-44
2021/12/18 10:42:25;;;;;;;2.63;1.27;;;9.40;99.90;;;;;;5084433;28;20136;-44
2021/12/18 10:44:59;;;;;;;6.10;1.30;;;9.40;99.90;;;;;;5073904;28;20035;-44
2021/12/18 10:47:26;;;;;;;3.10;1.17;;;9.40;99.90;;;;;;5073127;28;20028;-43
2021/12/18 10:49:52;;;;;;;2.22;1.40;;;9.40;99.90;;;;;;5081687;28;20098;-43
2021/12/18 10:52:34;;;;;;;12.00;1.20;;;9.50;99.90;;;;;;5092111;28;20099;-43
2021/12/18 10:55:06;;;;;;;4.85;1.30;;;9.50;99.90;;;;;;5090854;28;20126;-44
2021/12/18 10:57:32;;;;;;;3.72;1.20;;;9.50;99.90;;;;;;5089050;28;20512;-43
2021/12/18 10:59:58;;;;;;;9.10;1.20;;;9.50;99.90;;;;;;5092206;28;20044;-44
2021/12/18 11:02:27;;;;;;;3.22;1.13;;;9.50;99.90;;;;;;5090915;28;20020;-43
2021/12/18 11:04:53;;;;;;;3.10;1.10;;;9.50;99.90;;;;;;5088283;28;20073;-44
2021/12/18 11:07:28;;;;;;;10.23;1.63;;;9.50;99.90;;;;;;5092010;28;20020;-44
2021/12/18 11:10:13;;;;;;;4.75;1.02;;;9.60;99.90;;;;;;5089608;28;20034;-44
2021/12/18 11:15:23;;;;;;;8.32;1.60;;;9.60;99.90;;;;;;5092844;28;20130;-44
2021/12/18 11:17:49;;;;;;;3.72;1.55;;;9.60;99.90;;;;;;5092774;28;20111;-44
2021/12/18 11:20:15;;;;;;;3.53;1.50;;;9.60;99.90;;;;;;5092842;28;20024;-44
2021/12/18 11:22:41;;;;;;;3.53;1.52;;;9.60;99.90;;;;;;5092232;28;20035;-43
2021/12/18 11:25:10;;;;;;;6.05;1.48;;;9.60;99.90;;;;;;5092739;28;20028;-43
2021/12/18 11:27:36;;;;;;;;;;;9.70;99.90;;;;;;5093547;28;20371;-44
2021/12/18 11:30:09;;;;;;;5.82;1.40;;;9.70;99.90;;;;;;5092939;28;19904;-43
2021/12/18 11:32:42;;;;;;;8.50;1.13;;;9.70;99.90;;;;;;5092523;28;20016;-43
2021/12/18 11:35:11;;;;;;;4.97;1.60;;;9.70;99.90;;;;;;5079735;28;20089;-43
2021/12/18 11:37:43;;;;;;;7.38;1.52;;;9.70;99.90;;;;;;5092704;28;20020;-43
2021/12/18 11:40:12;;;;;;;3.80;1.40;;;9.70;99.90;;;;;;5080984;28;20065;-46
2021/12/18 11:42:37;;;;;;;7.05;1.35;;;9.70;99.90;;;;;;5072516;28;20023;-44
2021/12/18 11:45:06;;;;;;;5.57;1.38;;;9.70;99.90;;;;;;5072601;28;20020;-43
2021/12/18 11:47:34;;;;;;;6.05;1.48;;;9.70;99.90;;;;;;5071434;28;20027;-44
2021/12/18 11:50:19;;;;;;;2.78;1.27;;;9.70;99.90;;;;;;5075222;28;20035;-44
2021/12/18 11:53:04;;;;;;;5.10;1.83;;;9.70;99.90;;;;;;5091066;28;20031;-43
2021/12/18 11:55:55;;;;;;;6.35;1.48;;;9.70;99.90;;;;;;5092315;28;20040;-43
2021/12/18 11:58:25;;;;;;;4.88;1.80;;;9.70;99.90;;;;;;5078221;28;20036;-44
2021/12/18 12:01:02;;;;;;;4.43;1.55;;;9.70;99.90;;;;;;5071664;28;20045;-43
2021/12/18 12:03:40;;;;;;;2.28;1.45;;;9.70;99.90;;;;;;5072190;28;20020;-44
2021/12/18 12:06:33;;;;;;;5.20;2.07;;;9.80;99.90;;;;;;5071689;28;20028;-45
2021/12/18 12:09:34;;;;;;;6.95;1.90;;;9.80;99.90;;;;;;5071584;28;20112;-44
2021/12/18 12:12:05;;;;;;;4.03;1.55;;;9.80;99.90;;;;;;5072242;28;20036;-43
2021/12/18 12:14:37;;;;;;;4.68;1.83;;;9.80;99.90;;;;;;5071282;28;20490;-43
2021/12/18 12:17:21;;;;;;;3.90;2.00;;;9.80;99.90;;;;;;5072001;28;20086;-43
2021/12/18 12:20:05;;;;;;;9.50;1.88;;;9.80;99.90;;;;;;5072129;28;20024;-44
2021/12/18 12:22:53;;;;;;;1.90;1.60;;;9.80;99.90;;;;;;5071151;28;20521;-43
2021/12/18 12:25:35;;;;;;;7.27;1.93;;;9.80;99.90;;;;;;5089406;28;20062;-44
2021/12/18 12:28:07;;;;;;;6.30;1.80;;;9.80;99.90;;;;;;5091607;28;20028;-43
2021/12/18 12:30:40;;;;;;;5.85;1.88;;;9.80;99.90;;;;;;5090645;28;20119;-44
2021/12/18 12:33:10;;;;;;;5.30;1.52;;;9.80;99.90;;;;;;5090617;28;20028;-44
2021/12/18 12:36:03;;;;;;;2.88;1.23;;;9.80;99.90;;;;;;5090396;28;20036;-45
2021/12/18 12:38:57;;;;;;;1.60;1.10;;;9.80;99.90;;;;;;5088594;28;20028;-43
2021/12/18 12:41:48;;;;;;;5.30;1.40;;;9.80;99.90;;;;;;5088946;28;20028;-43
2021/12/18 12:44:25;;;;;;;4.75;1.25;;;9.80;99.90;;;;;;5089005;28;20427;-45
2021/12/18 12:47:12;;;;;;;3.85;1.10;;;9.80;99.90;;;;;;5090305;28;20527;-44
2021/12/18 12:49:38;;;;;;;6.70;1.40;;;9.80;99.90;;;;;;5071377;28;20031;-44
2021/12/18 12:52:07;;;;;;;4.30;1.08;;;9.80;99.90;;;;;;5079588;28;20083;-44
2021/12/18 12:54:43;;;;;;;2.85;1.33;;;9.80;99.90;;;;;;5091472;28;20028;-43
2021/12/18 12:57:23;;;;;;;5.05;1.58;;;9.80;99.90;;;;;;5091355;28;20031;-44
2021/12/18 13:00:20;;;;;;;2.17;1.23;;;9.90;99.90;;;;;;5091612;28;20090;-44
2021/12/18 13:03:07;;;;;;;6.18;1.48;;;9.90;99.90;;;;;;5063488;28;20109;-44
2021/12/18 13:05:54;;;;;;;2.42;1.13;;;9.80;99.90;;;;;;5091181;28;20356;-43
2021/12/18 13:08:21;;;;;;;9.40;1.73;;;9.80;99.90;;;;;;5091689;28;20112;-43
2021/12/18 13:10:49;;;;;;;1.70;0.90;;;9.90;99.90;;;;;;5091332;28;20394;-43
2021/12/18 13:13:20;;;;;;;4.72;1.25;;;9.90;99.90;;;;;;5091653;28;20024;-44
2021/12/18 13:15:52;;;;;;;7.72;1.25;;;9.90;99.90;;;;;;5091536;28;20447;-43
2021/12/18 13:18:19;;;;;;;5.45;1.30;;;9.90;99.90;;;;;;5091256;28;20020;-43
2021/12/18 13:20:57;;;;;;;1.95;1.10;;;9.90;99.90;;;;;;5093391;28;20032;-43
2021/12/18 13:23:37;;;;;;;4.88;0.77;;;9.90;99.90;;;;;;5086703;28;20033;-44
2021/12/18 13:26:02;;;;;;;2.50;1.50;;;9.90;99.90;;;;;;5074751;28;20043;-43
2021/12/18 13:28:28;;;;;;;1.45;0.95;;;9.80;99.90;;;;;;5074626;28;20483;-42
2021/12/18 13:30:55;;;;;;;2.15;1.27;;;9.80;99.90;;;;;;5074855;28;20024;-45
2021/12/18 13:33:25;;;;;;;2.88;1.30;;;9.80;99.90;;;;;;5074156;28;20033;-43
2021/12/18 13:35:59;;;;;;;4.78;1.35;;;9.80;99.90;;;;;;5074689;28;20036;-42
2021/12/18 13:38:33;;;;;;;3.03;1.13;;;9.80;99.90;;;;;;5074099;28;20380;-43
2021/12/18 13:40:58;;;;;;;4.93;1.20;;;9.80;99.90;;;;;;5074669;28;20166;-44
2021/12/18 13:43:25;;;;;;;5.63;1.70;;;9.80;99.90;;;;;;5074222;28;20107;-44
2021/12/18 13:45:58;;;;;;;4.68;1.40;;;9.80;99.90;;;;;;5074046;28;20491;-44
2021/12/18 13:48:27;;;;;;;3.40;1.45;;;9.90;99.90;;;;;;5074447;28;20021;-44